sensor_id;sensor_type;location;lat;lon;timestamp;P1;durP1;ratioP1;P2;durP2;ratioP2
74401;SDS011;62837;51.082;13.744;2024-02-15T00:01:16;6.10;;;1.50;;
74401;SDS011;62837;51.082;13.744;2024-02-15T00:03:47;5.60;;;2.10;;
74401;SDS011;62837;51.082;13.744;2024-02-15T00:06:18;8.60;;;2.00;;
74401;SDS011;62837;51.082;13.744;2024-02-15T00:08:50;5.20;;;1.80;;
74401;SDS011;62837;51.082;13.744;2024-02-15T00:11:21;5.60;;;1.60;;
74401;SDS011;62837;51.082;13.744;2024-02-15T00:13:52;6.40;;;1.70;;
74401;SDS011;62837;51.082;13.744;2024-02-15T00:16:24;6.20;;;2.00;;
74401;SDS011;62837;51.082;13.744;2024-02-15T00:18:55;5.40;;;2.00;;
74401;SDS011;62837;51.082;13.744;2024-02-15T00:21:27;5.60;;;2.00;;
74401;SDS011;62837;51.082;13.744;2024-02-15T00:23:58;6.30;;;2.10;;
74401;SDS011;62837;51.082;13.744;2024-02-15T00:26:29;7.90;;;2.40;;
74401;SDS011;62837;51.082;13.744;2024-02-15T00:29:00;7.90;;;2.60;;
74401;SDS011;62837;51.082;13.744;2024-02-15T00:31:31;5.60;;;2.20;;
74401;SDS011;62837;51.082;13.744;2024-02-15T00:34:03;8.20;;;2.70;;
74401;SDS011;62837;51.082;13.744;2024-02-15T00:36:34;8.00;;;2.60;;
74401;SDS011;62837;51.082;13.744;2024-02-15T00:39:05;7.50;;;2.40;;
74401;SDS011;62837;51.082;13.744;2024-02-15T00:41:36;5.90;;;1.90;;
74401;SDS011;62837;51.082;13.744;2024-02-15T00:44:09;6.80;;;2.90;;
74401;SDS011;62837;51.082;13.744;2024-02-15T00:46:40;7.50;;;2.80;;
74401;SDS011;62837;51.082;13.744;2024-02-15T00:49:11;6.90;;;2.50;;
74401;SDS011;62837;51.082;13.744;2024-02-15T00:51:42;9.50;;;2.90;;
74401;SDS011;62837;51.082;13.744;2024-02-15T00:54:13;8.50;;;3.30;;
74401;SDS011;62837;51.082;13.744;2024-02-15T00:56:44;9.60;;;4.10;;
74401;SDS011;62837;51.082;13.744;2024-02-15T00:59:15;8.50;;;4.30;;
74401;SDS011;62837;51.082;13.744;2024-02-15T01:01:46;10.40;;;4.70;;
74401;SDS011;62837;51.082;13.744;2024-02-15T01:04:16;10.60;;;4.70;;
74401;SDS011;62837;51.082;13.744;2024-02-15T01:06:47;11.00;;;5.30;;
74401;SDS011;62837;51.082;13.744;2024-02-15T01:09:18;11.80;;;5.90;;
74401;SDS011;62837;51.082;13.744;2024-02-15T01:11:48;10.90;;;5.80;;
74401;SDS011;62837;51.082;13.744;2024-02-15T01:14:19;12.00;;;6.00;;
74401;SDS011;62837;51.082;13.744;2024-02-15T01:16:50;12.60;;;6.70;;
74401;SDS011;62837;51.082;13.744;2024-02-15T01:19:20;12.80;;;6.30;;
74401;SDS011;62837;51.082;13.744;2024-02-15T01:21:51;10.90;;;5.90;;
74401;SDS011;62837;51.082;13.744;2024-02-15T01:24:22;11.80;;;5.60;;
74401;SDS011;62837;51.082;13.744;2024-02-15T01:26:53;10.10;;;4.60;;
74401;SDS011;62837;51.082;13.744;2024-02-15T01:29:24;11.00;;;5.40;;
74401;SDS011;62837;51.082;13.744;2024-02-15T01:31:55;11.80;;;4.70;;
74401;SDS011;62837;51.082;13.744;2024-02-15T01:34:26;11.20;;;5.40;;
74401;SDS011;62837;51.082;13.744;2024-02-15T01:36:57;8.60;;;4.50;;
74401;SDS011;62837;51.082;13.744;2024-02-15T01:39:28;10.80;;;4.70;;
74401;SDS011;62837;51.082;13.744;2024-02-15T01:41:59;8.20;;;3.90;;
74401;SDS011;62837;51.082;13.744;2024-02-15T01:44:31;10.60;;;4.40;;
74401;SDS011;62837;51.082;13.744;2024-02-15T01:47:01;9.00;;;4.30;;
74401;SDS011;62837;51.082;13.744;2024-02-15T01:49:33;10.00;;;4.30;;
74401;SDS011;62837;51.082;13.744;2024-02-15T01:52:04;9.10;;;4.40;;
74401;SDS011;62837;51.082;13.744;2024-02-15T01:54:36;8.70;;;4.00;;
74401;SDS011;62837;51.082;13.744;2024-02-15T01:57:07;9.00;;;4.20;;
74401;SDS011;62837;51.082;13.744;2024-02-15T01:59:38;8.70;;;3.80;;
74401;SDS011;62837;51.082;13.744;2024-02-15T02:02:10;9.00;;;3.90;;
74401;SDS011;62837;51.082;13.744;2024-02-15T02:04:43;9.90;;;4.30;;
74401;SDS011;62837;51.082;13.744;2024-02-15T02:07:14;8.70;;;4.30;;
74401;SDS011;62837;51.082;13.744;2024-02-15T02:09:45;10.00;;;4.40;;
74401;SDS011;62837;51.082;13.744;2024-02-15T02:12:16;9.50;;;4.10;;
74401;SDS011;62837;51.082;13.744;2024-02-15T02:14:48;8.10;;;4.00;;
74401;SDS011;62837;51.082;13.744;2024-02-15T02:17:18;6.90;;;2.90;;
74401;SDS011;62837;51.082;13.744;2024-02-15T02:19:49;8.80;;;3.10;;
74401;SDS011;62837;51.082;13.744;2024-02-15T02:22:20;9.50;;;3.40;;
74401;SDS011;62837;51.082;13.744;2024-02-15T02:25:02;9.00;;;3.60;;
74401;SDS011;62837;51.082;13.744;2024-02-15T02:27:34;8.60;;;3.50;;
74401;SDS011;62837;51.082;13.744;2024-02-15T02:30:11;8.80;;;4.00;;
74401;SDS011;62837;51.082;13.744;2024-02-15T02:32:47;7.30;;;3.10;;
74401;SDS011;62837;51.082;13.744;2024-02-15T02:35:18;7.00;;;3.20;;
74401;SDS011;62837;51.082;13.744;2024-02-15T02:37:49;8.50;;;3.20;;
74401;SDS011;62837;51.082;13.744;2024-02-15T02:40:20;9.80;;;3.10;;
74401;SDS011;62837;51.082;13.744;2024-02-15T02:42:52;8.70;;;3.90;;
74401;SDS011;62837;51.082;13.744;2024-02-15T02:45:27;9.80;;;3.50;;
74401;SDS011;62837;51.082;13.744;2024-02-15T02:47:57;8.50;;;3.50;;
74401;SDS011;62837;51.082;13.744;2024-02-15T02:50:28;8.30;;;2.50;;
74401;SDS011;62837;51.082;13.744;2024-02-15T02:53:00;8.10;;;3.10;;
74401;SDS011;62837;51.082;13.744;2024-02-15T02:55:31;8.90;;;3.00;;
74401;SDS011;62837;51.082;13.744;2024-02-15T02:58:02;8.40;;;3.40;;
74401;SDS011;62837;51.082;13.744;2024-02-15T03:00:33;7.20;;;3.00;;
74401;SDS011;62837;51.082;13.744;2024-02-15T03:03:05;8.10;;;3.10;;
74401;SDS011;62837;51.082;13.744;2024-02-15T03:05:37;8.60;;;3.30;;
74401;SDS011;62837;51.082;13.744;2024-02-15T03:08:09;8.50;;;3.60;;
74401;SDS011;62837;51.082;13.744;2024-02-15T03:10:41;8.70;;;3.30;;
74401;SDS011;62837;51.082;13.744;2024-02-15T03:13:12;8.50;;;3.50;;
74401;SDS011;62837;51.082;13.744;2024-02-15T03:15:44;9.60;;;3.20;;
74401;SDS011;62837;51.082;13.744;2024-02-15T03:18:16;7.40;;;3.10;;
74401;SDS011;62837;51.082;13.744;2024-02-15T03:20:47;9.20;;;3.30;;
74401;SDS011;62837;51.082;13.744;2024-02-15T03:23:18;8.00;;;2.80;;
74401;SDS011;62837;51.082;13.744;2024-02-15T03:25:49;8.60;;;2.90;;
74401;SDS011;62837;51.082;13.744;2024-02-15T03:28:21;7.50;;;2.80;;
74401;SDS011;62837;51.082;13.744;2024-02-15T03:30:52;7.80;;;2.90;;
74401;SDS011;62837;51.082;13.744;2024-02-15T03:33:23;6.30;;;2.90;;
74401;SDS011;62837;51.082;13.744;2024-02-15T03:35:54;7.40;;;2.30;;
74401;SDS011;62837;51.082;13.744;2024-02-15T03:38:27;8.60;;;3.20;;
74401;SDS011;62837;51.082;13.744;2024-02-15T03:40:59;10.70;;;3.50;;
74401;SDS011;62837;51.082;13.744;2024-02-15T03:43:30;5.90;;;2.00;;
74401;SDS011;62837;51.082;13.744;2024-02-15T03:46:02;7.90;;;2.70;;
74401;SDS011;62837;51.082;13.744;2024-02-15T03:48:35;9.00;;;3.20;;
74401;SDS011;62837;51.082;13.744;2024-02-15T03:51:06;6.60;;;2.50;;
74401;SDS011;62837;51.082;13.744;2024-02-15T03:53:37;6.70;;;2.70;;
74401;SDS011;62837;51.082;13.744;2024-02-15T03:56:08;6.50;;;2.50;;
74401;SDS011;62837;51.082;13.744;2024-02-15T03:58:39;7.30;;;2.50;;
74401;SDS011;62837;51.082;13.744;2024-02-15T04:01:10;8.20;;;2.60;;
74401;SDS011;62837;51.082;13.744;2024-02-15T04:03:43;7.60;;;2.60;;
74401;SDS011;62837;51.082;13.744;2024-02-15T04:06:15;6.30;;;2.30;;
74401;SDS011;62837;51.082;13.744;2024-02-15T04:08:47;6.40;;;2.70;;
74401;SDS011;62837;51.082;13.744;2024-02-15T04:11:18;7.70;;;2.50;;
74401;SDS011;62837;51.082;13.744;2024-02-15T04:13:48;6.00;;;2.10;;
74401;SDS011;62837;51.082;13.744;2024-02-15T04:16:19;6.30;;;2.60;;
74401;SDS011;62837;51.082;13.744;2024-02-15T04:18:50;8.10;;;2.60;;
74401;SDS011;62837;51.082;13.744;2024-02-15T04:21:21;7.80;;;2.70;;
74401;SDS011;62837;51.082;13.744;2024-02-15T04:23:52;6.50;;;2.50;;
74401;SDS011;62837;51.082;13.744;2024-02-15T04:26:23;7.40;;;2.60;;
74401;SDS011;62837;51.082;13.744;2024-02-15T04:28:55;7.10;;;2.40;;
74401;SDS011;62837;51.082;13.744;2024-02-15T04:31:26;7.10;;;2.40;;
74401;SDS011;62837;51.082;13.744;2024-02-15T04:33:57;6.50;;;2.50;;
74401;SDS011;62837;51.082;13.744;2024-02-15T04:36:28;9.30;;;3.30;;
74401;SDS011;62837;51.082;13.744;2024-02-15T04:39:01;6.30;;;2.60;;
74401;SDS011;62837;51.082;13.744;2024-02-15T04:41:32;7.10;;;2.40;;
74401;SDS011;62837;51.082;13.744;2024-02-15T04:44:04;6.10;;;2.50;;
74401;SDS011;62837;51.082;13.744;2024-02-15T04:46:39;7.60;;;2.30;;
74401;SDS011;62837;51.082;13.744;2024-02-15T04:49:13;6.50;;;2.50;;
74401;SDS011;62837;51.082;13.744;2024-02-15T04:51:44;7.00;;;2.40;;
74401;SDS011;62837;51.082;13.744;2024-02-15T04:54:15;8.20;;;2.80;;
74401;SDS011;62837;51.082;13.744;2024-02-15T04:56:46;7.90;;;2.90;;
74401;SDS011;62837;51.082;13.744;2024-02-15T04:59:20;6.90;;;2.40;;
74401;SDS011;62837;51.082;13.744;2024-02-15T05:01:53;7.10;;;2.60;;
74401;SDS011;62837;51.082;13.744;2024-02-15T05:04:24;7.40;;;2.80;;
74401;SDS011;62837;51.082;13.744;2024-02-15T05:06:55;7.00;;;2.80;;
74401;SDS011;62837;51.082;13.744;2024-02-15T05:09:25;7.60;;;2.80;;
74401;SDS011;62837;51.082;13.744;2024-02-15T05:11:56;7.20;;;2.70;;
74401;SDS011;62837;51.082;13.744;2024-02-15T05:14:30;10.70;;;3.50;;
74401;SDS011;62837;51.082;13.744;2024-02-15T05:17:00;9.10;;;3.10;;
74401;SDS011;62837;51.082;13.744;2024-02-15T05:19:32;8.00;;;2.80;;
74401;SDS011;62837;51.082;13.744;2024-02-15T05:22:03;7.90;;;3.00;;
74401;SDS011;62837;51.082;13.744;2024-02-15T05:24:34;6.50;;;2.50;;
74401;SDS011;62837;51.082;13.744;2024-02-15T05:27:06;6.90;;;2.60;;
74401;SDS011;62837;51.082;13.744;2024-02-15T05:29:37;8.50;;;3.30;;
74401;SDS011;62837;51.082;13.744;2024-02-15T05:34:42;8.50;;;3.00;;
74401;SDS011;62837;51.082;13.744;2024-02-15T05:37:13;8.10;;;2.90;;
74401;SDS011;62837;51.082;13.744;2024-02-15T05:39:44;7.20;;;2.90;;
74401;SDS011;62837;51.082;13.744;2024-02-15T05:42:15;7.80;;;3.00;;
74401;SDS011;62837;51.082;13.744;2024-02-15T05:44:46;8.30;;;3.20;;
74401;SDS011;62837;51.082;13.744;2024-02-15T05:47:18;7.50;;;3.10;;
74401;SDS011;62837;51.082;13.744;2024-02-15T05:49:48;7.50;;;3.70;;
74401;SDS011;62837;51.082;13.744;2024-02-15T05:52:19;9.70;;;3.10;;
74401;SDS011;62837;51.082;13.744;2024-02-15T05:54:51;7.40;;;3.60;;
74401;SDS011;62837;51.082;13.744;2024-02-15T05:57:22;8.10;;;3.40;;
74401;SDS011;62837;51.082;13.744;2024-02-15T05:59:53;8.10;;;3.10;;
74401;SDS011;62837;51.082;13.744;2024-02-15T06:02:31;8.80;;;4.10;;
74401;SDS011;62837;51.082;13.744;2024-02-15T06:05:03;8.90;;;3.30;;
74401;SDS011;62837;51.082;13.744;2024-02-15T06:07:38;8.30;;;2.80;;
74401;SDS011;62837;51.082;13.744;2024-02-15T06:10:09;8.00;;;3.00;;
74401;SDS011;62837;51.082;13.744;2024-02-15T06:12:41;8.40;;;2.90;;
74401;SDS011;62837;51.082;13.744;2024-02-15T06:15:12;10.30;;;3.60;;
74401;SDS011;62837;51.082;13.744;2024-02-15T06:17:44;7.30;;;3.10;;
74401;SDS011;62837;51.082;13.744;2024-02-15T06:20:16;8.20;;;3.50;;
74401;SDS011;62837;51.082;13.744;2024-02-15T06:22:48;7.90;;;3.50;;
74401;SDS011;62837;51.082;13.744;2024-02-15T06:25:19;15.90;;;3.40;;
74401;SDS011;62837;51.082;13.744;2024-02-15T06:27:52;8.30;;;3.60;;
74401;SDS011;62837;51.082;13.744;2024-02-15T06:30:29;8.30;;;3.60;;
74401;SDS011;62837;51.082;13.744;2024-02-15T06:33:18;7.80;;;3.10;;
74401;SDS011;62837;51.082;13.744;2024-02-15T06:36:05;10.40;;;3.60;;
74401;SDS011;62837;51.082;13.744;2024-02-15T06:38:54;7.40;;;3.50;;
74401;SDS011;62837;51.082;13.744;2024-02-15T06:41:43;7.70;;;3.10;;
74401;SDS011;62837;51.082;13.744;2024-02-15T06:44:14;9.10;;;3.70;;
74401;SDS011;62837;51.082;13.744;2024-02-15T06:46:44;10.10;;;2.70;;
74401;SDS011;62837;51.082;13.744;2024-02-15T06:49:15;20.50;;;4.70;;
74401;SDS011;62837;51.082;13.744;2024-02-15T06:51:48;9.20;;;3.30;;
74401;SDS011;62837;51.082;13.744;2024-02-15T06:54:19;8.10;;;3.50;;
74401;SDS011;62837;51.082;13.744;2024-02-15T06:56:50;6.60;;;2.80;;
74401;SDS011;62837;51.082;13.744;2024-02-15T06:59:22;6.90;;;2.70;;
74401;SDS011;62837;51.082;13.744;2024-02-15T07:01:53;7.10;;;3.10;;
74401;SDS011;62837;51.082;13.744;2024-02-15T07:04:24;7.20;;;2.90;;
74401;SDS011;62837;51.082;13.744;2024-02-15T07:06:55;7.30;;;3.30;;
74401;SDS011;62837;51.082;13.744;2024-02-15T07:09:28;8.90;;;3.70;;
74401;SDS011;62837;51.082;13.744;2024-02-15T07:11:59;12.30;;;3.70;;
74401;SDS011;62837;51.082;13.744;2024-02-15T07:14:30;8.90;;;4.10;;
74401;SDS011;62837;51.082;13.744;2024-02-15T07:17:00;12.10;;;4.80;;
74401;SDS011;62837;51.082;13.744;2024-02-15T07:19:32;12.60;;;5.50;;
74401;SDS011;62837;51.082;13.744;2024-02-15T07:24:35;12.30;;;5.70;;
74401;SDS011;62837;51.082;13.744;2024-02-15T07:27:07;12.50;;;4.70;;
74401;SDS011;62837;51.082;13.744;2024-02-15T07:29:39;10.20;;;4.80;;
74401;SDS011;62837;51.082;13.744;2024-02-15T07:32:10;10.50;;;5.20;;
74401;SDS011;62837;51.082;13.744;2024-02-15T07:34:41;13.60;;;5.90;;
74401;SDS011;62837;51.082;13.744;2024-02-15T07:37:13;10.70;;;5.40;;
74401;SDS011;62837;51.082;13.744;2024-02-15T07:39:44;11.90;;;5.80;;
74401;SDS011;62837;51.082;13.744;2024-02-15T07:42:15;10.80;;;4.90;;
74401;SDS011;62837;51.082;13.744;2024-02-15T07:44:46;12.20;;;5.10;;
74401;SDS011;62837;51.082;13.744;2024-02-15T07:47:17;9.10;;;2.60;;
74401;SDS011;62837;51.082;13.744;2024-02-15T07:49:51;12.70;;;5.10;;
74401;SDS011;62837;51.082;13.744;2024-02-15T07:52:22;12.30;;;4.70;;
74401;SDS011;62837;51.082;13.744;2024-02-15T07:54:53;12.90;;;4.70;;
74401;SDS011;62837;51.082;13.744;2024-02-15T07:57:24;12.60;;;5.80;;
74401;SDS011;62837;51.082;13.744;2024-02-15T07:59:54;10.20;;;4.70;;
74401;SDS011;62837;51.082;13.744;2024-02-15T08:02:25;13.00;;;5.40;;
74401;SDS011;62837;51.082;13.744;2024-02-15T08:04:56;10.80;;;5.70;;
74401;SDS011;62837;51.082;13.744;2024-02-15T08:07:27;13.10;;;5.60;;
74401;SDS011;62837;51.082;13.744;2024-02-15T08:10:01;11.80;;;5.90;;
74401;SDS011;62837;51.082;13.744;2024-02-15T08:12:32;12.40;;;5.10;;
74401;SDS011;62837;51.082;13.744;2024-02-15T08:15:03;11.70;;;6.10;;
74401;SDS011;62837;51.082;13.744;2024-02-15T08:17:40;11.70;;;5.40;;
74401;SDS011;62837;51.082;13.744;2024-02-15T08:20:14;11.80;;;5.80;;
74401;SDS011;62837;51.082;13.744;2024-02-15T08:22:49;11.10;;;5.20;;
74401;SDS011;62837;51.082;13.744;2024-02-15T08:25:20;12.90;;;5.50;;
74401;SDS011;62837;51.082;13.744;2024-02-15T08:27:50;14.40;;;5.30;;
74401;SDS011;62837;51.082;13.744;2024-02-15T08:30:21;13.80;;;5.90;;
74401;SDS011;62837;51.082;13.744;2024-02-15T08:32:52;12.20;;;5.60;;
74401;SDS011;62837;51.082;13.744;2024-02-15T08:35:23;13.70;;;6.10;;
74401;SDS011;62837;51.082;13.744;2024-02-15T08:37:54;10.90;;;5.10;;
74401;SDS011;62837;51.082;13.744;2024-02-15T08:40:25;11.40;;;5.40;;
74401;SDS011;62837;51.082;13.744;2024-02-15T08:42:56;13.40;;;5.20;;
74401;SDS011;62837;51.082;13.744;2024-02-15T08:45:27;13.00;;;5.10;;
74401;SDS011;62837;51.082;13.744;2024-02-15T08:47:57;8.30;;;4.40;;
74401;SDS011;62837;51.082;13.744;2024-02-15T08:50:32;9.60;;;4.50;;
74401;SDS011;62837;51.082;13.744;2024-02-15T08:53:03;10.50;;;4.90;;
74401;SDS011;62837;51.082;13.744;2024-02-15T08:55:34;9.90;;;4.90;;
74401;SDS011;62837;51.082;13.744;2024-02-15T08:58:05;9.00;;;4.60;;
74401;SDS011;62837;51.082;13.744;2024-02-15T09:00:37;11.30;;;4.40;;
74401;SDS011;62837;51.082;13.744;2024-02-15T09:03:12;10.20;;;4.50;;
74401;SDS011;62837;51.082;13.744;2024-02-15T09:05:43;9.00;;;4.60;;
74401;SDS011;62837;51.082;13.744;2024-02-15T09:08:14;10.90;;;5.30;;
74401;SDS011;62837;51.082;13.744;2024-02-15T09:10:48;10.40;;;5.30;;
74401;SDS011;62837;51.082;13.744;2024-02-15T09:13:20;9.50;;;4.80;;
74401;SDS011;62837;51.082;13.744;2024-02-15T09:15:51;10.30;;;4.60;;
74401;SDS011;62837;51.082;13.744;2024-02-15T09:18:22;11.00;;;5.50;;
74401;SDS011;62837;51.082;13.744;2024-02-15T09:20:53;13.40;;;5.60;;
74401;SDS011;62837;51.082;13.744;2024-02-15T09:23:24;11.10;;;5.90;;
74401;SDS011;62837;51.082;13.744;2024-02-15T09:25:55;11.60;;;5.80;;
74401;SDS011;62837;51.082;13.744;2024-02-15T09:28:27;12.70;;;6.00;;
74401;SDS011;62837;51.082;13.744;2024-02-15T09:30:58;11.60;;;5.60;;
74401;SDS011;62837;51.082;13.744;2024-02-15T09:33:29;10.70;;;4.60;;
74401;SDS011;62837;51.082;13.744;2024-02-15T09:36:00;14.20;;;5.00;;
74401;SDS011;62837;51.082;13.744;2024-02-15T09:38:32;10.50;;;5.60;;
74401;SDS011;62837;51.082;13.744;2024-02-15T09:41:03;11.60;;;5.30;;
74401;SDS011;62837;51.082;13.744;2024-02-15T09:43:36;12.20;;;5.80;;
74401;SDS011;62837;51.082;13.744;2024-02-15T09:46:07;11.10;;;5.60;;
74401;SDS011;62837;51.082;13.744;2024-02-15T09:48:37;12.00;;;5.40;;
74401;SDS011;62837;51.082;13.744;2024-02-15T09:51:14;10.90;;;5.50;;
74401;SDS011;62837;51.082;13.744;2024-02-15T09:53:47;10.40;;;4.50;;
74401;SDS011;62837;51.082;13.744;2024-02-15T09:56:18;8.90;;;4.80;;
74401;SDS011;62837;51.082;13.744;2024-02-15T09:58:52;10.20;;;5.30;;
74401;SDS011;62837;51.082;13.744;2024-02-15T10:01:23;14.20;;;5.20;;
74401;SDS011;62837;51.082;13.744;2024-02-15T10:03:54;10.70;;;5.00;;
74401;SDS011;62837;51.082;13.744;2024-02-15T10:06:27;12.30;;;4.90;;
74401;SDS011;62837;51.082;13.744;2024-02-15T10:11:59;11.40;;;4.80;;
74401;SDS011;62837;51.082;13.744;2024-02-15T10:14:30;10.20;;;4.60;;
74401;SDS011;62837;51.082;13.744;2024-02-15T10:17:05;12.10;;;4.70;;
74401;SDS011;62837;51.082;13.744;2024-02-15T10:19:39;12.00;;;5.20;;
74401;SDS011;62837;51.082;13.744;2024-02-15T10:22:12;11.90;;;4.90;;
74401;SDS011;62837;51.082;13.744;2024-02-15T10:24:43;10.40;;;3.80;;
74401;SDS011;62837;51.082;13.744;2024-02-15T10:27:14;12.30;;;4.10;;
74401;SDS011;62837;51.082;13.744;2024-02-15T10:29:53;10.00;;;4.40;;
74401;SDS011;62837;51.082;13.744;2024-02-15T10:32:43;10.90;;;4.60;;
74401;SDS011;62837;51.082;13.744;2024-02-15T10:35:20;11.10;;;4.60;;
74401;SDS011;62837;51.082;13.744;2024-02-15T10:38:05;11.80;;;4.80;;
74401;SDS011;62837;51.082;13.744;2024-02-15T10:40:38;13.70;;;4.40;;
74401;SDS011;62837;51.082;13.744;2024-02-15T10:43:10;11.10;;;5.40;;
74401;SDS011;62837;51.082;13.744;2024-02-15T10:45:42;12.10;;;5.40;;
74401;SDS011;62837;51.082;13.744;2024-02-15T10:48:13;13.10;;;5.60;;
74401;SDS011;62837;51.082;13.744;2024-02-15T10:50:44;13.50;;;5.10;;
74401;SDS011;62837;51.082;13.744;2024-02-15T10:53:20;13.00;;;5.20;;
74401;SDS011;62837;51.082;13.744;2024-02-15T10:55:57;16.30;;;6.30;;
74401;SDS011;62837;51.082;13.744;2024-02-15T10:58:34;12.50;;;5.50;;
74401;SDS011;62837;51.082;13.744;2024-02-15T11:01:15;14.30;;;5.90;;
74401;SDS011;62837;51.082;13.744;2024-02-15T11:03:52;12.00;;;5.20;;
74401;SDS011;62837;51.082;13.744;2024-02-15T11:06:29;12.80;;;4.80;;
74401;SDS011;62837;51.082;13.744;2024-02-15T11:09:03;13.40;;;6.00;;
74401;SDS011;62837;51.082;13.744;2024-02-15T11:11:35;14.40;;;4.60;;
74401;SDS011;62837;51.082;13.744;2024-02-15T11:16:57;13.10;;;4.80;;
74401;SDS011;62837;51.082;13.744;2024-02-15T11:19:43;10.20;;;3.90;;
74401;SDS011;62837;51.082;13.744;2024-02-15T11:22:15;8.80;;;4.20;;
74401;SDS011;62837;51.082;13.744;2024-02-15T11:24:49;11.80;;;4.60;;
74401;SDS011;62837;51.082;13.744;2024-02-15T11:27:27;11.20;;;4.50;;
74401;SDS011;62837;51.082;13.744;2024-02-15T11:30:00;12.50;;;5.10;;
74401;SDS011;62837;51.082;13.744;2024-02-15T11:32:36;10.50;;;4.90;;
74401;SDS011;62837;51.082;13.744;2024-02-15T11:35:12;10.10;;;4.60;;
74401;SDS011;62837;51.082;13.744;2024-02-15T11:37:51;9.80;;;4.90;;
74401;SDS011;62837;51.082;13.744;2024-02-15T11:43:52;12.80;;;5.50;;
74401;SDS011;62837;51.082;13.744;2024-02-15T11:46:24;12.40;;;5.20;;
74401;SDS011;62837;51.082;13.744;2024-02-15T11:48:59;16.70;;;6.20;;
74401;SDS011;62837;51.082;13.744;2024-02-15T11:51:33;15.30;;;6.10;;
74401;SDS011;62837;51.082;13.744;2024-02-15T11:54:11;17.50;;;6.60;;
74401;SDS011;62837;51.082;13.744;2024-02-15T11:56:55;21.20;;;6.10;;
74401;SDS011;62837;51.082;13.744;2024-02-15T11:59:42;14.00;;;5.60;;
74401;SDS011;62837;51.082;13.744;2024-02-15T12:05:28;16.70;;;6.20;;
74401;SDS011;62837;51.082;13.744;2024-02-15T12:08:16;12.10;;;4.80;;
74401;SDS011;62837;51.082;13.744;2024-02-15T12:11:05;12.30;;;4.80;;
74401;SDS011;62837;51.082;13.744;2024-02-15T12:13:53;10.70;;;4.70;;
74401;SDS011;62837;51.082;13.744;2024-02-15T12:16:42;11.70;;;5.10;;
74401;SDS011;62837;51.082;13.744;2024-02-15T12:19:30;11.60;;;4.90;;
74401;SDS011;62837;51.082;13.744;2024-02-15T12:22:02;9.90;;;4.40;;
74401;SDS011;62837;51.082;13.744;2024-02-15T12:24:34;10.40;;;4.40;;
74401;SDS011;62837;51.082;13.744;2024-02-15T12:27:05;11.40;;;4.70;;
74401;SDS011;62837;51.082;13.744;2024-02-15T12:29:36;12.50;;;5.20;;
74401;SDS011;62837;51.082;13.744;2024-02-15T12:32:08;12.00;;;4.30;;
74401;SDS011;62837;51.082;13.744;2024-02-15T12:34:39;10.90;;;4.40;;
74401;SDS011;62837;51.082;13.744;2024-02-15T12:39:42;13.90;;;4.70;;
74401;SDS011;62837;51.082;13.744;2024-02-15T12:42:13;14.10;;;6.30;;
74401;SDS011;62837;51.082;13.744;2024-02-15T12:44:45;21.00;;;8.40;;
74401;SDS011;62837;51.082;13.744;2024-02-15T12:47:22;13.10;;;4.80;;
74401;SDS011;62837;51.082;13.744;2024-02-15T12:49:53;13.50;;;4.40;;
74401;SDS011;62837;51.082;13.744;2024-02-15T12:52:34;13.20;;;4.90;;
74401;SDS011;62837;51.082;13.744;2024-02-15T12:55:14;11.90;;;4.60;;
74401;SDS011;62837;51.082;13.744;2024-02-15T12:57:49;10.20;;;4.80;;
74401;SDS011;62837;51.082;13.744;2024-02-15T13:00:21;13.30;;;5.20;;
74401;SDS011;62837;51.082;13.744;2024-02-15T13:02:57;14.30;;;4.80;;
74401;SDS011;62837;51.082;13.744;2024-02-15T13:05:31;11.80;;;4.50;;
74401;SDS011;62837;51.082;13.744;2024-02-15T13:08:02;10.60;;;4.00;;
74401;SDS011;62837;51.082;13.744;2024-02-15T13:10:38;10.90;;;4.50;;
74401;SDS011;62837;51.082;13.744;2024-02-15T13:13:09;13.60;;;4.40;;
74401;SDS011;62837;51.082;13.744;2024-02-15T13:15:42;9.50;;;4.00;;
74401;SDS011;62837;51.082;13.744;2024-02-15T13:18:19;8.50;;;3.40;;
74401;SDS011;62837;51.082;13.744;2024-02-15T13:20:50;10.00;;;3.40;;
74401;SDS011;62837;51.082;13.744;2024-02-15T13:23:21;11.00;;;3.70;;
74401;SDS011;62837;51.082;13.744;2024-02-15T13:25:53;8.50;;;3.50;;
74401;SDS011;62837;51.082;13.744;2024-02-15T13:28:26;8.30;;;2.90;;
74401;SDS011;62837;51.082;13.744;2024-02-15T13:30:56;10.60;;;3.40;;
74401;SDS011;62837;51.082;13.744;2024-02-15T13:33:28;7.30;;;2.50;;
74401;SDS011;62837;51.082;13.744;2024-02-15T13:36:00;8.10;;;2.90;;
74401;SDS011;62837;51.082;13.744;2024-02-15T13:38:31;6.50;;;2.50;;
74401;SDS011;62837;51.082;13.744;2024-02-15T13:41:05;6.00;;;2.30;;
74401;SDS011;62837;51.082;13.744;2024-02-15T13:43:36;7.80;;;2.50;;
74401;SDS011;62837;51.082;13.744;2024-02-15T13:46:09;7.00;;;2.30;;
74401;SDS011;62837;51.082;13.744;2024-02-15T13:48:39;6.10;;;1.90;;
74401;SDS011;62837;51.082;13.744;2024-02-15T13:51:11;6.60;;;1.90;;
74401;SDS011;62837;51.082;13.744;2024-02-15T13:53:42;6.80;;;1.80;;
74401;SDS011;62837;51.082;13.744;2024-02-15T13:56:13;6.10;;;2.30;;
74401;SDS011;62837;51.082;13.744;2024-02-15T13:58:44;7.10;;;1.90;;
74401;SDS011;62837;51.082;13.744;2024-02-15T14:01:15;5.00;;;2.00;;
74401;SDS011;62837;51.082;13.744;2024-02-15T14:03:46;5.80;;;2.00;;
74401;SDS011;62837;51.082;13.744;2024-02-15T14:06:18;5.30;;;1.60;;
74401;SDS011;62837;51.082;13.744;2024-02-15T14:08:49;4.80;;;1.50;;
74401;SDS011;62837;51.082;13.744;2024-02-15T14:11:20;5.00;;;1.20;;
74401;SDS011;62837;51.082;13.744;2024-02-15T14:13:51;4.20;;;1.40;;
74401;SDS011;62837;51.082;13.744;2024-02-15T14:16:26;6.60;;;1.40;;
74401;SDS011;62837;51.082;13.744;2024-02-15T14:19:01;5.10;;;1.40;;
74401;SDS011;62837;51.082;13.744;2024-02-15T14:21:34;3.90;;;1.10;;
74401;SDS011;62837;51.082;13.744;2024-02-15T14:24:09;5.30;;;2.00;;
74401;SDS011;62837;51.082;13.744;2024-02-15T14:26:41;8.00;;;1.60;;
74401;SDS011;62837;51.082;13.744;2024-02-15T14:29:12;4.10;;;1.20;;
74401;SDS011;62837;51.082;13.744;2024-02-15T14:31:50;4.60;;;1.30;;
74401;SDS011;62837;51.082;13.744;2024-02-15T14:34:40;3.90;;;1.10;;
74401;SDS011;62837;51.082;13.744;2024-02-15T14:37:11;4.10;;;1.20;;
74401;SDS011;62837;51.082;13.744;2024-02-15T14:39:44;4.20;;;0.90;;
74401;SDS011;62837;51.082;13.744;2024-02-15T14:42:15;3.80;;;0.70;;
74401;SDS011;62837;51.082;13.744;2024-02-15T14:44:46;2.00;;;0.70;;
74401;SDS011;62837;51.082;13.744;2024-02-15T14:47:18;3.20;;;0.90;;
74401;SDS011;62837;51.082;13.744;2024-02-15T14:49:50;3.60;;;0.80;;
74401;SDS011;62837;51.082;13.744;2024-02-15T14:52:20;3.00;;;1.20;;
74401;SDS011;62837;51.082;13.744;2024-02-15T14:54:52;2.90;;;0.60;;
74401;SDS011;62837;51.082;13.744;2024-02-15T14:57:23;3.20;;;0.70;;
74401;SDS011;62837;51.082;13.744;2024-02-15T14:59:55;2.30;;;0.70;;
74401;SDS011;62837;51.082;13.744;2024-02-15T15:02:26;2.60;;;0.60;;
74401;SDS011;62837;51.082;13.744;2024-02-15T15:04:58;3.40;;;0.80;;
74401;SDS011;62837;51.082;13.744;2024-02-15T15:07:42;1.80;;;0.60;;
74401;SDS011;62837;51.082;13.744;2024-02-15T15:10:31;4.50;;;0.60;;
74401;SDS011;62837;51.082;13.744;2024-02-15T15:13:20;7.70;;;1.80;;
74401;SDS011;62837;51.082;13.744;2024-02-15T15:15:51;5.50;;;2.00;;
74401;SDS011;62837;51.082;13.744;2024-02-15T15:18:21;8.20;;;2.60;;
74401;SDS011;62837;51.082;13.744;2024-02-15T15:20:52;9.20;;;4.10;;